Terminal Aerodrome Forecast
Issued by NWS

Home | Current Version | Previous Version | Text Only | Print | Product List | Glossary On
Versions: 1 2 3 4 5 6 7 8 9 10 11 12 13 14 15 16
000
FTUS44 KBMX 272300
TAFANB
TAF
KANB 272320Z 2800/2824 22011G17KT P6SM SCT040
     FM280200 24003KT P6SM SCT250
     FM280800 25006KT P6SM VCSH BKN025 BKN070
      TEMPO 2809/2813 4SM -SHRA
     FM281400 28012KT P6SM SCT030 BKN070
     FM282100 31010KT P6SM SKC=

USA.gov is the U.S. government's official web portal to all federal, state and local government web resources and services.